Time;durP1;ratioP1;P1;durP2;ratioP2;P2;SDS_P1;SDS_P2;PMS_P1;PMS_P2;Temp;Humidity;BMP_temperature;BMP_pressure;BME280_temperature;BME280_humidity;BME280_pressure;Samples;Min_cycle;Max_cycle;Signal;HPM_P1;HPM_P2
2023/06/01 00:01:52;;;;;;;5.27;2.03;;;18.20;99.90;;;;;;4953765;29;20188;-65
2023/06/01 00:04:18;;;;;;;1.63;1.53;;;18.30;99.90;;;;;;4953838;29;20626;-65
2023/06/01 00:06:44;;;;;;;2.67;1.60;;;18.40;99.90;;;;;;4953318;28;20212;-65
2023/06/01 00:09:09;;;;;;;1.77;1.67;;;18.40;99.90;;;;;;4936548;29;20250;-65
2023/06/01 00:11:36;;;;;;;2.03;1.60;;;18.30;99.90;;;;;;4936375;28;20180;-64
2023/06/01 00:14:02;;;;;;;1.97;1.60;;;18.20;99.90;;;;;;4953488;29;20173;-65
2023/06/01 00:16:30;;;;;;;3.07;1.27;;;18.20;99.90;;;;;;4953443;28;20877;-65
2023/06/01 00:18:56;;;;;;;3.10;1.60;;;18.30;99.90;;;;;;4953285;28;20187;-65
2023/06/01 00:21:22;;;;;;;1.53;1.43;;;18.30;99.90;;;;;;4953569;28;20172;-65
2023/06/01 00:23:49;;;;;;;1.30;1.20;;;18.40;99.90;;;;;;4936143;29;20662;-66
2023/06/01 00:26:15;;;;;;;1.70;1.53;;;18.20;99.90;;;;;;4953275;28;20207;-65
2023/06/01 00:28:40;;;;;;;3.40;1.30;;;18.00;99.90;;;;;;4953090;28;20262;-66
2023/06/01 00:31:06;;;;;;;2.90;1.70;;;18.20;99.90;;;;;;4949967;28;20254;-66
2023/06/01 00:33:32;;;;;;;3.50;1.70;;;18.10;99.90;;;;;;4953354;28;20181;-65
2023/06/01 00:35:57;;;;;;;1.60;1.33;;;18.20;99.90;;;;;;4952951;28;20196;-65
2023/06/01 00:38:23;;;;;;;2.80;1.60;;;18.10;99.90;;;;;;4953274;28;20216;-64
2023/06/01 00:40:50;;;;;;;1.43;1.33;;;18.10;99.90;;;;;;4953043;28;20665;-65
2023/06/01 00:43:15;;;;;;;2.40;1.50;;;18.00;99.90;;;;;;4953331;28;20233;-66
2023/06/01 00:45:41;;;;;;;2.80;1.40;;;17.90;99.90;;;;;;4952449;28;20207;-65
2023/06/01 00:48:07;;;;;;;1.80;1.60;;;17.90;99.90;;;;;;4953277;28;20243;-65
2023/06/01 00:50:33;;;;;;;4.20;2.00;;;17.80;99.90;;;;;;4952677;28;20181;-64
2023/06/01 00:53:00;;;;;;;3.30;1.70;;;17.70;99.90;;;;;;4953239;29;20185;-65
2023/06/01 00:55:26;;;;;;;4.83;1.80;;;17.70;99.90;;;;;;4952179;28;20684;-65
2023/06/01 00:57:52;;;;;;;1.80;1.50;;;17.60;99.90;;;;;;4953119;28;20176;-65
2023/06/01 01:00:19;;;;;;;3.33;1.40;;;17.60;99.90;;;;;;4952841;29;20200;-64
2023/06/01 01:02:44;;;;;;;3.20;1.40;;;17.60;99.90;;;;;;4953638;28;20185;-65
2023/06/01 01:05:11;;;;;;;4.43;1.60;;;17.70;99.90;;;;;;4953220;28;20267;-65
2023/06/01 01:07:43;;;;;;;2.50;1.80;;;17.50;99.90;;;;;;4953541;28;20200;-65
2023/06/01 01:10:15;;;;;;;2.67;1.67;;;17.50;99.90;;;;;;4953447;29;20259;-64
2023/06/01 01:13:06;;;;;;;3.90;1.53;;;17.30;99.90;;;;;;4952730;29;20179;-65
2023/06/01 01:15:46;;;;;;;1.80;1.70;;;17.10;99.90;;;;;;4952233;28;20205;-65
2023/06/01 01:18:17;;;;;;;2.27;1.60;;;17.00;99.90;;;;;;4952535;29;20213;-66
2023/06/01 01:20:48;;;;;;;1.63;1.53;;;16.70;99.90;;;;;;4952586;29;20236;-66
2023/06/01 01:23:34;;;;;;;1.73;1.60;;;16.30;99.90;;;;;;4940555;29;20182;-65
2023/06/01 01:26:29;;;;;;;3.23;1.80;;;16.10;99.90;;;;;;4949615;28;20198;-65
2023/06/01 01:29:08;;;;;;;3.73;1.50;;;16.00;99.90;;;;;;4952172;29;20212;-64
2023/06/01 01:31:34;;;;;;;3.13;1.67;;;16.00;99.90;;;;;;4952495;29;20189;-65
2023/06/01 01:34:01;;;;;;;1.80;1.70;;;15.70;99.90;;;;;;4952136;29;20170;-64
2023/06/01 01:36:28;;;;;;;2.90;1.40;;;15.50;99.90;;;;;;4952171;28;20312;-64
2023/06/01 01:38:54;;;;;;;1.97;1.60;;;15.30;99.90;;;;;;4952194;29;20189;-65
2023/06/01 01:41:21;;;;;;;2.23;1.53;;;15.40;99.90;;;;;;4952452;28;20169;-64
2023/06/01 01:43:48;;;;;;;2.00;1.40;;;15.20;99.90;;;;;;4951848;29;20182;-66
2023/06/01 01:46:25;;;;;;;3.73;1.43;;;15.10;99.90;;;;;;4952122;28;20217;-65
2023/06/01 01:49:09;;;;;;;1.90;1.70;;;14.90;99.90;;;;;;4951760;28;20339;-65
2023/06/01 01:52:13;;;;;;;2.73;1.67;;;14.80;99.90;;;;;;4951889;28;20184;-65
2023/06/01 01:54:43;;;;;;;4.30;1.60;;;14.60;99.90;;;;;;4931913;28;20189;-64
2023/06/01 01:57:10;;;;;;;2.73;1.73;;;14.50;99.90;;;;;;4951750;28;20193;-64
2023/06/01 01:59:37;;;;;;;2.90;1.80;;;14.50;99.90;;;;;;4951806;29;20190;-64
2023/06/01 02:02:02;;;;;;;2.90;1.70;;;14.00;99.90;;;;;;4939295;28;20175;-65
2023/06/01 02:04:29;;;;;;;2.60;1.83;;;14.10;99.90;;;;;;4951598;29;20650;-65
2023/06/01 02:06:54;;;;;;;2.40;1.80;;;14.20;99.90;;;;;;4951058;28;20226;-64
2023/06/01 02:09:20;;;;;;;1.67;1.37;;;14.00;99.90;;;;;;4934472;29;20662;-65
2023/06/01 02:11:45;;;;;;;1.80;1.70;;;13.80;99.90;;;;;;4939235;28;20232;-65
2023/06/01 02:14:11;;;;;;;3.60;2.03;;;13.50;99.90;;;;;;4951385;28;20220;-64
2023/06/01 02:16:37;;;;;;;1.90;1.80;;;13.50;99.90;;;;;;4937787;28;20202;-64
2023/06/01 02:19:02;;;;;;;4.17;2.10;;;13.40;99.90;;;;;;4950226;28;20186;-64
2023/06/01 02:21:28;;;;;;;1.77;1.67;;;13.40;99.90;;;;;;4951604;28;20174;-65
2023/06/01 02:23:54;;;;;;;1.93;1.80;;;13.30;99.90;;;;;;4951600;29;20669;-64
2023/06/01 02:26:20;;;;;;;2.37;1.80;;;13.20;99.90;;;;;;4951667;28;20201;-65
2023/06/01 02:28:46;;;;;;;3.43;1.80;;;13.20;99.90;;;;;;4951111;28;20213;-65
2023/06/01 02:31:14;;;;;;;2.30;2.00;;;13.30;99.90;;;;;;4951703;28;20261;-65
2023/06/01 02:33:39;;;;;;;2.27;2.00;;;13.00;99.90;;;;;;4950260;28;20178;-65
2023/06/01 02:36:06;;;;;;;2.40;2.20;;;12.80;99.90;;;;;;4951528;28;20190;-65
2023/06/01 02:38:31;;;;;;;2.47;2.13;;;12.70;99.90;;;;;;4951243;28;20228;-64
2023/06/01 02:40:57;;;;;;;2.13;1.90;;;12.70;99.90;;;;;;4951486;29;20669;-64
2023/06/01 02:43:23;;;;;;;2.10;2.00;;;12.70;99.90;;;;;;4951168;28;20178;-64
2023/06/01 02:45:48;;;;;;;2.07;1.87;;;12.70;99.90;;;;;;4950719;28;20228;-64
2023/06/01 02:48:14;;;;;;;3.27;2.10;;;12.70;99.90;;;;;;5029327;23;20222;-66
2023/06/01 02:50:40;;;;;;;2.37;2.07;;;12.80;99.90;;;;;;5031913;28;20650;-67
2023/06/01 02:53:06;;;;;;;2.13;1.93;;;12.50;99.90;;;;;;5032017;28;20266;-68
2023/06/01 02:55:31;;;;;;;2.73;2.03;;;12.40;99.90;;;;;;5014166;28;20540;-68
2023/06/01 02:57:57;;;;;;;2.23;1.90;;;12.60;99.90;;;;;;5027327;28;20190;-68
2023/06/01 03:00:22;;;;;;;2.07;1.70;;;12.40;99.90;;;;;;5024882;28;20597;-66
2023/06/01 03:02:48;;;;;;;3.07;1.97;;;12.40;99.90;;;;;;5027404;28;20639;-68
2023/06/01 03:05:14;;;;;;;2.10;1.90;;;12.20;99.90;;;;;;5031180;28;20191;-69
2023/06/01 03:07:41;;;;;;;2.40;2.20;;;12.10;99.90;;;;;;5012769;28;20859;-69
2023/06/01 03:10:08;;;;;;;2.37;2.10;;;12.10;99.90;;;;;;5020169;28;20712;-69
2023/06/01 03:12:33;;;;;;;3.27;2.10;;;12.30;99.90;;;;;;5031817;28;20175;-69
2023/06/01 03:14:59;;;;;;;3.50;2.10;;;12.10;99.90;;;;;;5011585;28;20183;-67
2023/06/01 03:17:25;;;;;;;3.90;2.30;;;12.00;99.90;;;;;;4994175;28;20176;-68
2023/06/01 03:19:51;;;;;;;2.90;2.20;;;12.10;99.90;;;;;;5018784;28;20173;-66
2023/06/01 03:22:16;;;;;;;2.53;1.77;;;12.20;99.90;;;;;;5031661;28;20253;-66
2023/06/01 03:24:42;;;;;;;4.67;2.23;;;12.30;99.90;;;;;;5019850;28;20182;-69
2023/06/01 03:27:08;;;;;;;1.97;1.70;;;12.20;99.90;;;;;;5030724;28;20192;-67
2023/06/01 03:29:34;;;;;;;3.00;1.97;;;12.00;99.90;;;;;;5017803;28;20281;-66
2023/06/01 03:31:59;;;;;;;1.97;1.83;;;12.00;99.90;;;;;;4994450;28;20172;-66
2023/06/01 03:34:27;;;;;;;3.17;2.30;;;12.00;99.90;;;;;;5010049;28;20180;-67
2023/06/01 03:36:53;;;;;;;2.23;2.03;;;11.90;99.90;;;;;;5024926;28;20557;-67
2023/06/01 03:39:18;;;;;;;2.50;2.30;;;12.10;99.90;;;;;;5029393;28;20390;-68
2023/06/01 03:41:44;;;;;;;3.97;2.47;;;12.50;99.90;;;;;;5025471;28;20211;-68
2023/06/01 03:44:11;;;;;;;3.87;2.10;;;12.30;99.90;;;;;;5001532;28;20193;-68
2023/06/01 03:46:37;;;;;;;2.70;2.00;;;12.20;99.90;;;;;;5026543;28;20199;-69
2023/06/01 03:49:02;;;;;;;2.03;1.83;;;12.20;99.90;;;;;;5031624;28;20237;-67
2023/06/01 03:51:28;;;;;;;5.23;2.10;;;12.20;99.90;;;;;;5026104;28;20175;-68
2023/06/01 03:53:54;;;;;;;2.63;1.93;;;12.10;99.90;;;;;;5031384;28;20230;-68
2023/06/01 03:56:19;;;;;;;2.53;2.33;;;12.20;99.90;;;;;;5028683;28;20573;-67
2023/06/01 03:58:45;;;;;;;2.03;1.83;;;12.30;99.90;;;;;;5031139;28;20663;-68
2023/06/01 04:01:12;;;;;;;2.63;2.10;;;12.40;99.90;;;;;;5028970;28;20187;-67
2023/06/01 04:03:38;;;;;;;1.90;1.77;;;12.50;99.90;;;;;;5025196;28;20180;-67
2023/06/01 04:06:11;;;;;;;2.43;2.23;;;12.30;99.90;;;;;;5030674;28;20199;-68
2023/06/01 04:08:38;;;;;;;2.13;1.93;;;12.40;99.90;;;;;;5006733;28;20222;-67
2023/06/01 04:11:04;;;;;;;2.30;2.00;;;12.30;99.90;;;;;;5022260;28;20252;-68
2023/06/01 04:13:29;;;;;;;2.47;2.17;;;12.40;99.90;;;;;;5023972;28;20176;-67
2023/06/01 04:15:55;;;;;;;3.97;2.00;;;12.50;99.90;;;;;;5027444;28;20195;-67
2023/06/01 04:18:20;;;;;;;2.83;2.63;;;12.60;99.90;;;;;;5008158;28;20590;-66
2023/06/01 04:20:48;;;;;;;4.13;2.03;;;12.80;99.90;;;;;;5026470;28;20565;-67
2023/06/01 04:23:13;;;;;;;2.73;2.13;;;12.90;99.90;;;;;;5027515;28;20180;-67
2023/06/01 04:25:40;;;;;;;2.40;2.13;;;12.90;99.90;;;;;;5031251;28;20202;-67
2023/06/01 04:28:05;;;;;;;3.87;2.70;;;12.90;99.90;;;;;;5020827;28;20287;-69
2023/06/01 04:30:31;;;;;;;3.73;2.00;;;12.90;99.90;;;;;;5022544;28;20611;-68
2023/06/01 04:32:56;;;;;;;2.37;2.07;;;13.10;99.90;;;;;;5022055;28;20184;-69
2023/06/01 04:35:22;;;;;;;2.13;1.97;;;13.30;99.90;;;;;;5003824;28;20619;-67
2023/06/01 04:37:49;;;;;;;2.00;1.90;;;13.30;99.90;;;;;;5024764;28;20693;-68
2023/06/01 04:40:14;;;;;;;3.27;1.93;;;13.40;99.90;;;;;;5031624;28;20226;-68
2023/06/01 04:42:42;;;;;;;5.73;2.17;;;13.50;99.90;;;;;;5027281;28;20184;-69
2023/06/01 04:45:13;;;;;;;2.57;2.37;;;13.70;99.90;;;;;;5010934;28;20179;-69
2023/06/01 04:47:44;;;;;;;3.80;2.20;;;13.90;99.90;;;;;;5032938;28;20206;-67
2023/06/01 04:50:11;;;;;;;2.33;2.20;;;;;;;;;;5034858;28;20711;-69
2023/06/01 04:52:37;;;;;;;5.40;2.10;;;;;;;;;;5034608;28;20178;-68
2023/06/01 04:55:07;;;;;;;3.83;1.87;;;;;;;;;;5027056;28;20643;-68
2023/06/01 04:57:35;;;;;;;2.13;1.93;;;;;;;;;;5029088;28;20640;-68
2023/06/01 05:00:01;;;;;;;2.67;2.07;;;;;;;;;;5027323;28;20232;-67
2023/06/01 05:02:28;;;;;;;2.97;1.83;;;;;;;;;;5030205;28;20187;-69
2023/06/01 05:04:54;;;;;;;3.30;2.40;;;;;;;;;;5022093;28;20192;-68
2023/06/01 05:07:21;;;;;;;3.63;2.20;;;;;;;;;;5025244;28;20190;-67
2023/06/01 05:09:47;;;;;;;2.53;2.20;;;;;;;;;;5029518;28;20697;-68
2023/06/01 05:12:13;;;;;;;3.47;2.07;;;;;;;;;;5032900;28;20177;-70
2023/06/01 05:14:39;;;;;;;2.07;1.87;;;;;;;;;;5026508;28;20186;-67
2023/06/01 05:17:05;;;;;;;3.93;2.13;;;;;;;;;;5025382;28;20194;-67
2023/06/01 05:19:30;;;;;;;2.67;1.80;;;;;;;;;;5031757;28;20189;-67
2023/06/01 05:21:56;;;;;;;2.20;2.00;;;;;;;;;;5031700;28;20189;-70
2023/06/01 05:24:22;;;;;;;2.23;1.87;;;;;;;;;;5028522;28;20186;-67
2023/06/01 05:26:48;;;;;;;3.33;2.17;;;;;;;;;;5015553;28;20206;-67
2023/06/01 05:29:14;;;;;;;3.17;2.00;;;;;;;;;;5019643;28;20200;-67
2023/06/01 05:31:40;;;;;;;2.13;1.80;;;;;;;;;;5033258;28;20176;-68
2023/06/01 05:34:06;;;;;;;2.90;2.00;;;;;;;;;;5026407;28;20171;-68
2023/06/01 05:36:32;;;;;;;3.70;1.97;;;;;;;;;;5026179;28;20200;-68
2023/06/01 05:38:59;;;;;;;5.20;2.37;;;;;;;;;;5024759;28;20189;-67
2023/06/01 05:41:25;;;;;;;3.17;1.93;;;;;;;;;;5017917;28;20181;-67
2023/06/01 05:43:51;;;;;;;2.37;2.07;;;;;;;;;;5021591;28;20178;-66
2023/06/01 05:46:17;;;;;;;5.20;1.87;;;18.20;99.90;;;;;;5011131;28;20214;-69
2023/06/01 05:48:42;;;;;;;4.23;1.90;;;18.40;99.90;;;;;;5025923;28;20203;-69
2023/06/01 05:51:08;;;;;;;2.10;2.00;;;18.70;99.90;;;;;;5030405;28;20186;-69
2023/06/01 05:53:33;;;;;;;3.60;1.90;;;18.20;99.90;;;;;;4996045;28;20180;-67
2023/06/01 05:55:59;;;;;;;3.67;2.10;;;18.10;99.90;;;;;;5016433;28;20199;-69
2023/06/01 05:58:25;;;;;;;2.00;1.70;;;18.20;99.90;;;;;;5030748;28;20574;-69
2023/06/01 06:00:50;;;;;;;2.30;2.10;;;18.40;99.90;;;;;;5009354;28;20570;-66
2023/06/01 06:03:16;;;;;;;2.00;1.80;;;18.50;99.90;;;;;;5029848;28;20500;-68
2023/06/01 06:05:42;;;;;;;2.53;1.90;;;18.60;99.90;;;;;;5031456;28;20245;-69
2023/06/01 06:08:07;;;;;;;1.83;1.73;;;18.60;99.90;;;;;;5032904;28;20711;-69
2023/06/01 06:10:33;;;;;;;4.10;1.70;;;18.90;99.90;;;;;;5032559;28;20179;-69
2023/06/01 06:12:58;;;;;;;4.83;1.70;;;19.10;99.90;;;;;;5008769;28;20554;-67
2023/06/01 06:15:24;;;;;;;2.73;1.90;;;19.20;99.90;;;;;;5018918;28;20252;-67
2023/06/01 06:17:50;;;;;;;2.35;1.95;;;19.20;99.90;;;;;;5019660;28;20482;-68
2023/06/01 06:20:16;;;;;;;5.07;1.70;;;19.30;99.90;;;;;;5013668;28;20265;-68
2023/06/01 06:22:42;;;;;;;2.03;1.53;;;19.40;99.90;;;;;;5010198;28;20213;-69
2023/06/01 06:25:08;;;;;;;1.67;1.43;;;19.50;99.90;;;;;;5005635;28;20232;-68
2023/06/01 06:27:34;;;;;;;1.83;1.70;;;19.50;99.90;;;;;;5017951;28;20179;-68
2023/06/01 06:30:00;;;;;;;2.53;1.63;;;19.50;99.90;;;;;;5013733;28;20177;-69
2023/06/01 06:32:26;;;;;;;3.50;1.70;;;19.60;99.90;;;;;;5012959;28;20179;-69
2023/06/01 06:34:52;;;;;;;3.17;1.70;;;;;;;;;;5022377;28;20187;-68
2023/06/01 06:37:18;;;;;;;6.05;2.05;;;;;;;;;;5023878;28;20190;-67
2023/06/01 06:39:45;;;;;;;3.33;1.67;;;;;;;;;;5016230;28;20207;-67
2023/06/01 06:42:11;;;;;;;2.08;1.52;;;;;;;;;;5031027;28;20578;-69
2023/06/01 06:44:37;;;;;;;2.87;1.33;;;;;;;;;;5010484;28;20229;-70
2023/06/01 06:47:03;;;;;;;2.20;1.52;;;;;;;;;;5020628;28;20220;-69
2023/06/01 06:49:29;;;;;;;3.47;1.80;;;;;;;;;;5026238;28;20214;-69
2023/06/01 06:51:55;;;;;;;6.47;1.50;;;;;;;;;;5013084;28;20168;-69
2023/06/01 06:54:22;;;;;;;3.28;2.00;;;;;;;;;;5019589;28;20175;-66
2023/06/01 06:56:48;;;;;;;5.47;1.70;;;;;;;;;;5014015;28;20207;-69
2023/06/01 06:59:14;;;;;;;3.35;1.58;;;;;;;;;;5025466;28;20222;-68
2023/06/01 07:01:40;;;;;;;1.70;1.60;;;;;;;;;;5009663;28;20184;-67
2023/06/01 07:04:07;;;;;;;2.45;1.50;;;;;;;;;;5023510;28;20175;-68
2023/06/01 07:06:33;;;;;;;2.25;1.52;;;;;;;;;;5027720;28;20285;-69
2023/06/01 07:08:59;;;;;;;1.88;1.75;;;;;;;;;;5024059;28;20214;-69
2023/06/01 07:11:26;;;;;;;3.95;1.40;;;;;;;;;;5012271;28;20180;-67
2023/06/01 07:13:52;;;;;;;2.83;1.63;;;;;;;;;;5018321;28;20601;-68
2023/06/01 07:16:18;;;;;;;2.38;1.75;;;;;;;;;;5011539;28;20200;-68
2023/06/01 07:18:44;;;;;;;2.22;1.90;;;;;;;;;;5013389;28;20191;-68
2023/06/01 07:21:10;;;;;;;3.30;1.83;;;;;;;;;;5008586;28;20629;-67
2023/06/01 07:23:36;;;;;;;3.17;2.25;;;;;;;;;;5025993;28;20179;-69
2023/06/01 07:26:02;;;;;;;3.85;1.95;;;;;;;;;;5020416;28;20196;-67
2023/06/01 07:28:30;;;;;;;3.10;1.65;;;;;;;;;;5007455;28;20287;-67
2023/06/01 07:30:56;;;;;;;4.80;2.08;;;;;;;;;;5021659;28;20551;-69
2023/06/01 07:33:22;;;;;;;2.40;1.80;;;;;;;;;;5029729;28;20167;-67
2023/06/01 07:35:52;;;;;;;1.80;1.70;;;;;;;;;;5025697;28;20183;-68
2023/06/01 07:38:19;;;;;;;3.28;1.63;;;;;;;;;;5022047;28;20191;-70
2023/06/01 07:40:45;;;;;;;2.05;1.80;;;;;;;;;;5025980;28;20190;-67
2023/06/01 07:43:11;;;;;;;2.83;2.05;;;;;;;;;;5025740;28;20177;-68
2023/06/01 07:45:40;;;;;;;2.67;1.80;;;;;;;;;;5015077;28;20203;-68
2023/06/01 07:48:06;;;;;;;1.88;1.70;;;;;;;;;;5018561;28;20252;-69
2023/06/01 07:50:32;;;;;;;3.72;2.22;;;;;;;;;;5028216;28;20180;-69
2023/06/01 07:52:59;;;;;;;2.97;1.90;;;;;;;;;;5012436;28;20639;-68
2023/06/01 07:55:25;;;;;;;2.55;1.88;;;;;;;;;;5018797;28;20380;-67
2023/06/01 07:57:52;;;;;;;2.83;1.67;;;;;;;;;;5007403;28;20179;-68
2023/06/01 08:00:18;;;;;;;4.40;1.67;;;;;;;;;;5026421;28;20175;-67
2023/06/01 08:02:45;;;;;;;2.08;1.88;;;;;;;;;;5029266;28;20179;-67
2023/06/01 08:05:11;;;;;;;4.78;2.00;;;;;;;;;;5026802;28;20171;-67
2023/06/01 08:07:38;;;;;;;2.10;1.80;;;;;;;;;;5025629;28;20203;-69
2023/06/01 08:10:08;;;;;;;2.13;1.92;;;;;;;;;;5033899;28;20175;-69
2023/06/01 08:12:34;;;;;;;3.25;1.80;;;;;;;;;;5035031;28;20178;-68
2023/06/01 08:15:00;;;;;;;3.47;2.03;;;;;;;;;;5016437;28;20196;-67
2023/06/01 08:17:26;;;;;;;1.90;1.77;;;;;;;;;;5029090;28;20229;-69
2023/06/01 08:19:52;;;;;;;2.45;1.85;;;;;;;;;;5019328;28;20196;-68
2023/06/01 08:22:23;;;;;;;2.65;2.33;;;;;;;;;;5018235;28;20191;-67
2023/06/01 08:24:52;;;;;;;3.95;1.70;;;;;;;;;;5016227;28;20180;-66
2023/06/01 08:27:19;;;;;;;1.73;1.58;;;;;;;;;;5015588;28;20176;-68
2023/06/01 08:29:47;;;;;;;3.97;1.67;;;;;;;;;;5024035;28;20239;-67
2023/06/01 08:32:13;;;;;;;1.75;1.65;;;22.70;99.90;;;;;;5028019;28;20691;-67
2023/06/01 08:34:38;;;;;;;4.38;2.13;;;22.80;99.90;;;;;;5027266;28;20255;-67
2023/06/01 08:37:04;;;;;;;4.68;1.80;;;22.90;99.90;;;;;;5027326;28;20187;-68
2023/06/01 08:39:30;;;;;;;4.78;2.00;;;;;;;;;;5034061;28;20681;-66
2023/06/01 08:42:02;;;;;;;3.25;1.98;;;;;;;;;;5034314;28;20222;-67
2023/06/01 08:44:38;;;;;;;3.38;2.00;;;23.10;99.90;;;;;;5034304;28;20241;-67
2023/06/01 08:47:05;;;;;;;3.75;2.00;;;23.20;99.90;;;;;;5034266;28;20301;-69
2023/06/01 08:49:32;;;;;;;1.70;1.60;;;23.20;99.90;;;;;;5046115;22;20257;-78
2023/06/01 08:52:01;;;;;;;2.08;1.95;;;23.60;99.90;;;;;;5012943;28;20735;-78
2023/06/01 08:54:28;;;;;;;5.75;2.10;;;23.90;99.90;;;;;;5010876;28;20207;-79
2023/06/01 08:56:55;;;;;;;3.95;1.98;;;23.90;99.90;;;;;;4997249;28;20247;-79
2023/06/01 08:59:20;;;;;;;1.77;1.67;;;23.80;99.90;;;;;;5022708;28;20191;-78
2023/06/01 09:01:47;;;;;;;2.45;1.75;;;23.60;99.90;;;;;;5030709;28;20202;-78
2023/06/01 09:04:13;;;;;;;2.55;1.90;;;23.60;99.90;;;;;;5019460;28;20187;-78
2023/06/01 09:06:41;;;;;;;3.42;1.50;;;23.60;99.90;;;;;;5011056;28;20172;-77
2023/06/01 09:09:11;;;;;;;3.53;1.75;;;23.80;97.90;;;;;;5013053;28;20611;-76
2023/06/01 09:11:36;;;;;;;2.28;1.90;;;24.30;98.80;;;;;;5030115;28;20164;-77
2023/06/01 09:14:18;;;;;;;2.38;1.98;;;24.30;99.90;;;;;;5030368;28;20175;-77
2023/06/01 09:16:44;;;;;;;2.80;1.80;;;24.00;99.50;;;;;;5030145;28;20182;-78
2023/06/01 09:19:09;;;;;;;2.17;1.95;;;23.90;99.70;;;;;;5012484;28;20199;-77
2023/06/01 09:21:35;;;;;;;3.53;1.60;;;24.00;99.90;;;;;;5030487;28;20179;-78
2023/06/01 09:24:21;;;;;;;2.65;1.88;;;24.20;99.90;;;;;;5029868;28;20538;-77
2023/06/01 09:26:50;;;;;;;3.17;1.90;;;24.40;99.90;;;;;;5017327;28;20235;-76
2023/06/01 09:29:16;;;;;;;1.77;1.60;;;24.50;99.90;;;;;;5014972;28;20340;-78
2023/06/01 09:31:47;;;;;;;2.33;1.60;;;24.40;97.50;;;;;;5012579;28;20262;-77
2023/06/01 09:34:18;;;;;;;3.28;2.05;;;24.60;97.50;;;;;;5029360;28;20220;-77
2023/06/01 09:36:51;;;;;;;5.18;1.90;;;24.70;98.10;;;;;;5030451;28;20168;-77
2023/06/01 09:39:19;;;;;;;4.72;1.73;;;24.50;98.50;;;;;;5029796;28;20284;-76
2023/06/01 09:41:55;;;;;;;4.97;1.88;;;24.60;98.90;;;;;;5017021;28;20194;-77
2023/06/01 09:44:34;;;;;;;2.85;1.90;;;24.60;94.30;;;;;;5005339;28;20178;-77
2023/06/01 09:47:04;;;;;;;6.75;1.95;;;24.60;96.90;;;;;;5010798;28;20541;-77
2023/06/01 09:49:39;;;;;;;4.15;1.83;;;24.50;96.30;;;;;;5011778;28;20207;-77
2023/06/01 09:52:04;;;;;;;3.10;1.90;;;24.70;98.00;;;;;;5011870;28;20689;-75
2023/06/01 09:54:32;;;;;;;3.45;1.90;;;24.80;98.10;;;;;;5030560;28;20175;-77
2023/06/01 09:56:59;;;;;;;3.50;2.22;;;25.20;99.90;;;;;;5030265;28;20179;-77
2023/06/01 09:59:28;;;;;;;2.47;1.67;;;25.40;94.40;;;;;;5030744;28;20191;-77
2023/06/01 10:01:57;;;;;;;3.00;1.67;;;25.30;96.80;;;;;;5030711;28;20720;-78
2023/06/01 10:04:24;;;;;;;3.08;2.28;;;;;;;;;;5030113;28;20207;-76
2023/06/01 10:06:52;;;;;;;2.28;1.80;;;25.80;94.00;;;;;;5011988;28;20168;-79
2023/06/01 10:09:19;;;;;;;3.28;2.00;;;25.80;94.40;;;;;;5029631;28;20700;-77
2023/06/01 10:11:52;;;;;;;2.80;1.95;;;25.70;91.60;;;;;;5011904;28;20175;-77
2023/06/01 10:14:18;;;;;;;3.03;1.98;;;25.80;90.10;;;;;;5029349;28;20220;-77
2023/06/01 10:16:44;;;;;;;2.47;1.65;;;25.70;91.50;;;;;;5029269;28;20175;-77
2023/06/01 10:19:11;;;;;;;3.10;1.83;;;25.70;90.20;;;;;;5029388;28;20282;-76
2023/06/01 10:21:37;;;;;;;3.28;1.90;;;26.30;89.60;;;;;;4992005;28;20180;-77
2023/06/01 10:24:03;;;;;;;3.15;1.65;;;26.20;83.80;;;;;;5004881;28;20186;-77
2023/06/01 10:26:33;;;;;;;3.92;2.17;;;26.00;85.30;;;;;;4998621;28;20247;-76
2023/06/01 10:29:00;;;;;;;2.58;1.85;;;25.60;86.80;;;;;;5028481;28;20599;-78
2023/06/01 10:31:35;;;;;;;2.13;1.85;;;25.90;84.30;;;;;;5029169;28;20163;-77
2023/06/01 10:34:02;;;;;;;3.20;2.00;;;25.80;86.50;;;;;;5029033;28;20171;-76
2023/06/01 10:36:51;;;;;;;1.75;1.50;;;25.30;82.70;;;;;;5029046;28;20172;-77
2023/06/01 10:39:26;;;;;;;3.05;1.70;;;25.70;82.00;;;;;;5029050;28;20201;-76
2023/06/01 10:41:53;;;;;;;2.20;2.00;;;25.70;81.70;;;;;;5028796;28;20182;-77
2023/06/01 10:44:42;;;;;;;4.63;1.85;;;25.90;80.00;;;;;;5028835;28;20216;-77
2023/06/01 10:47:11;;;;;;;2.05;1.85;;;25.90;77.70;;;;;;4998434;28;20650;-76
2023/06/01 10:49:49;;;;;;;1.98;1.70;;;25.70;71.80;;;;;;5028710;28;20242;-75
2023/06/01 10:52:40;;;;;;;1.77;1.67;;;26.00;67.40;;;;;;5029060;28;20172;-76
2023/06/01 10:55:06;;;;;;;2.35;1.60;;;26.00;66.60;;;;;;5010817;28;20317;-76
2023/06/01 10:57:35;;;;;;;2.70;1.85;;;26.30;64.60;;;;;;5029087;28;20576;-76
2023/06/01 11:00:21;;;;;;;1.70;1.50;;;26.20;63.60;;;;;;5028649;28;20225;-76
2023/06/01 11:03:03;;;;;;;1.48;1.48;;;26.60;63.90;;;;;;5028947;28;20186;-76
2023/06/01 11:05:39;;;;;;;2.20;1.70;;;26.40;59.60;;;;;;5005677;28;20262;-76
2023/06/01 11:08:29;;;;;;;1.80;1.40;;;26.10;56.50;;;;;;5028548;28;20244;-75
2023/06/01 11:11:00;;;;;;;2.47;1.58;;;26.20;57.80;;;;;;5028576;28;20593;-76
2023/06/01 11:13:27;;;;;;;2.03;1.67;;;26.60;56.70;;;;;;5003146;28;20586;-77
2023/06/01 11:16:13;;;;;;;2.53;1.63;;;26.40;57.70;;;;;;5028253;28;20202;-76
2023/06/01 11:18:41;;;;;;;1.83;1.25;;;26.80;60.90;;;;;;5028637;28;20191;-76
2023/06/01 11:21:12;;;;;;;2.15;1.50;;;26.90;56.00;;;;;;5010854;28;20171;-76
2023/06/01 11:23:38;;;;;;;2.17;1.70;;;27.00;55.40;;;;;;5028143;28;20175;-77
2023/06/01 11:26:06;;;;;;;1.85;1.60;;;27.30;54.80;;;;;;5003132;28;20233;-77
2023/06/01 11:28:32;;;;;;;2.90;1.60;;;27.60;54.80;;;;;;5005977;28;20225;-76
2023/06/01 11:31:00;;;;;;;3.65;1.98;;;27.30;54.90;;;;;;4999487;28;20650;-77
2023/06/01 11:33:28;;;;;;;2.20;1.80;;;27.20;54.90;;;;;;5002464;28;20184;-77
2023/06/01 11:36:04;;;;;;;2.05;1.33;;;27.30;56.00;;;;;;5005468;28;20167;-78
2023/06/01 11:38:40;;;;;;;1.90;1.70;;;27.20;56.90;;;;;;5015608;28;20839;-77
2023/06/01 11:41:07;;;;;;;2.25;1.52;;;27.00;54.00;;;;;;5011014;28;20175;-77
2023/06/01 11:43:33;;;;;;;2.13;1.75;;;26.60;54.40;;;;;;4998257;28;20180;-76
2023/06/01 11:46:06;;;;;;;1.88;1.52;;;26.70;53.70;;;;;;5030991;28;20706;-77
2023/06/01 11:48:33;;;;;;;3.40;1.33;;;27.20;57.00;;;;;;5021333;28;20200;-77
2023/06/01 11:51:00;;;;;;;4.32;1.77;;;27.60;53.00;;;;;;5024562;28;20216;-77
2023/06/01 11:53:26;;;;;;;1.80;1.40;;;27.50;54.80;;;;;;5005528;28;20258;-76
2023/06/01 11:55:53;;;;;;;2.78;1.60;;;27.50;53.80;;;;;;5006253;28;20168;-76
2023/06/01 11:58:30;;;;;;;1.90;1.73;;;27.60;54.10;;;;;;5021729;28;20183;-76
2023/06/01 12:00:56;;;;;;;2.15;1.58;;;27.40;51.80;;;;;;5001794;28;20601;-76
2023/06/01 12:03:25;;;;;;;3.00;1.70;;;27.50;53.10;;;;;;5018645;28;20203;-76
2023/06/01 12:05:52;;;;;;;3.40;1.83;;;27.70;52.20;;;;;;5025200;28;20255;-76
2023/06/01 12:08:20;;;;;;;3.28;1.70;;;27.80;55.30;;;;;;5020056;28;20733;-76
2023/06/01 12:10:48;;;;;;;2.53;1.45;;;27.90;56.20;;;;;;5011208;28;20181;-77
2023/06/01 12:13:19;;;;;;;3.78;1.83;;;27.70;54.00;;;;;;5002256;28;20167;-76
2023/06/01 12:15:45;;;;;;;2.80;1.60;;;27.60;56.70;;;;;;5030040;28;20211;-76
2023/06/01 12:18:11;;;;;;;1.70;1.60;;;28.50;54.90;;;;;;5014068;28;20173;-77
2023/06/01 12:20:42;;;;;;;1.80;1.63;;;28.40;52.10;;;;;;5001048;28;20266;-77
2023/06/01 12:23:14;;;;;;;2.70;1.80;;;28.20;54.20;;;;;;5008124;28;20175;-77
2023/06/01 12:25:55;;;;;;;1.50;1.50;;;28.50;50.70;;;;;;5024799;28;20168;-77
2023/06/01 12:28:21;;;;;;;2.05;1.40;;;28.20;51.70;;;;;;5018715;28;20747;-76
2023/06/01 12:30:48;;;;;;;3.00;1.67;;;27.80;50.90;;;;;;5013231;28;20180;-77
2023/06/01 12:33:33;;;;;;;3.92;1.70;;;28.20;54.30;;;;;;5023657;28;20163;-77
2023/06/01 12:35:59;;;;;;;1.40;1.30;;;29.00;52.00;;;;;;5027417;28;20202;-78
2023/06/01 12:38:26;;;;;;;2.22;1.80;;;28.70;51.20;;;;;;5020738;28;20237;-78
2023/06/01 12:41:09;;;;;;;2.08;1.70;;;28.90;50.50;;;;;;5005575;28;20176;-78
2023/06/01 12:43:35;;;;;;;1.73;1.55;;;29.20;49.60;;;;;;5006215;28;20239;-78
2023/06/01 12:46:03;;;;;;;3.78;1.50;;;29.30;49.10;;;;;;5033127;28;20835;-78
2023/06/01 12:48:36;;;;;;;1.50;1.40;;;29.10;48.80;;;;;;5003881;28;20242;-78
2023/06/01 12:51:03;;;;;;;2.38;1.52;;;28.00;48.60;;;;;;5024318;28;20171;-79
2023/06/01 12:53:29;;;;;;;3.85;1.58;;;27.70;50.50;;;;;;5008598;28;20171;-78
2023/06/01 12:55:55;;;;;;;1.63;1.52;;;27.80;50.10;;;;;;5000284;28;20262;-78
2023/06/01 12:58:21;;;;;;;1.95;1.30;;;27.80;49.20;;;;;;5014564;28;20296;-78
2023/06/01 13:00:48;;;;;;;1.65;1.55;;;28.00;50.10;;;;;;5025599;28;20620;-78
2023/06/01 13:03:14;;;;;;;2.00;1.75;;;28.00;51.30;;;;;;5026308;28;20195;-78
2023/06/01 13:05:45;;;;;;;2.17;1.50;;;28.50;50.10;;;;;;5014418;28;20211;-78
2023/06/01 13:08:12;;;;;;;2.35;1.42;;;28.90;50.00;;;;;;5011092;28;20688;-78
2023/06/01 13:10:38;;;;;;;2.25;1.63;;;28.50;49.20;;;;;;5027760;28;20183;-77
2023/06/01 13:13:03;;;;;;;2.10;1.67;;;29.00;52.10;;;;;;5016739;28;20296;-76
2023/06/01 13:15:29;;;;;;;1.50;1.38;;;28.80;50.70;;;;;;5016590;28;20176;-77